Time;durP1;ratioP1;P1;durP2;ratioP2;P2;SDS_P1;SDS_P2;PMS_P1;PMS_P2;Temp;Humidity;BMP_temperature;BMP_pressure;BME280_temperature;BME280_humidity;BME280_pressure;Samples;Min_cycle;Max_cycle;Signal;HPM_P1;HPM_P2
2023/09/23 00:01:33;;;;;;;3.10;1.80;;;12.90;87.30;;;;;;5047644;28;20442;-74
2023/09/23 00:03:59;;;;;;;2.10;1.67;;;12.90;87.10;;;;;;5050040;28;20469;-73
2023/09/23 00:06:25;;;;;;;2.47;1.90;;;12.90;87.10;;;;;;5041240;28;20998;-74
2023/09/23 00:08:50;;;;;;;2.97;2.00;;;12.90;87.00;;;;;;5045434;28;20185;-75
2023/09/23 00:11:16;;;;;;;6.10;1.90;;;13.00;86.20;;;;;;5047866;28;20259;-74
2023/09/23 00:13:42;;;;;;;2.10;1.60;;;12.90;85.90;;;;;;5048579;28;20188;-73
2023/09/23 00:16:09;;;;;;;6.80;2.10;;;13.00;85.70;;;;;;5041094;28;20550;-74
2023/09/23 00:18:35;;;;;;;4.13;1.53;;;13.00;85.50;;;;;;5044205;28;20439;-74
2023/09/23 00:21:03;;;;;;;2.70;1.43;;;13.00;85.50;;;;;;5040969;28;21259;-74
2023/09/23 00:23:28;;;;;;;4.93;1.70;;;13.10;84.90;;;;;;5049910;28;20669;-75
2023/09/23 00:25:54;;;;;;;2.03;1.40;;;13.10;84.70;;;;;;5043126;28;20486;-76
2023/09/23 00:28:19;;;;;;;3.10;1.60;;;13.10;84.40;;;;;;5048336;28;20181;-75
2023/09/23 00:30:45;;;;;;;3.97;1.40;;;13.00;83.70;;;;;;5049948;28;20176;-74
2023/09/23 00:33:14;;;;;;;3.13;1.57;;;13.00;83.80;;;;;;5051140;28;20177;-73
2023/09/23 00:35:44;;;;;;;3.50;1.40;;;13.00;83.40;;;;;;5046718;28;20447;-74
2023/09/23 00:38:13;;;;;;;2.20;1.30;;;13.00;83.00;;;;;;5044049;28;20451;-74
2023/09/23 00:40:39;;;;;;;2.50;1.60;;;12.90;83.10;;;;;;5049827;28;20577;-73
2023/09/23 00:43:12;;;;;;;2.97;1.40;;;12.90;82.80;;;;;;5049055;28;20820;-73
2023/09/23 00:45:48;;;;;;;3.87;1.73;;;12.80;83.30;;;;;;5046876;28;20307;-73
2023/09/23 00:48:18;;;;;;;3.50;1.73;;;12.80;83.10;;;;;;5032735;28;20506;-74
2023/09/23 00:50:44;;;;;;;2.83;1.60;;;12.80;83.60;;;;;;5048134;28;20446;-74
2023/09/23 00:53:10;;;;;;;6.40;1.50;;;12.80;83.00;;;;;;5043283;28;20438;-73
2023/09/23 00:55:42;;;;;;;2.40;1.57;;;12.80;83.10;;;;;;5045992;28;20998;-73
2023/09/23 00:58:14;;;;;;;5.30;1.70;;;12.80;83.80;;;;;;5041781;28;20680;-72
2023/09/23 01:00:43;;;;;;;2.50;1.33;;;12.70;83.80;;;;;;5046689;28;20477;-75
2023/09/23 01:03:12;;;;;;;2.57;1.30;;;12.60;84.40;;;;;;5049941;28;20411;-74
2023/09/23 01:05:39;;;;;;;1.67;1.30;;;12.50;84.60;;;;;;5036874;28;20450;-74
2023/09/23 01:08:07;;;;;;;1.50;1.33;;;12.50;84.70;;;;;;5050702;28;21110;-73
2023/09/23 01:10:32;;;;;;;6.10;1.60;;;12.50;84.70;;;;;;5046160;28;20419;-75
2023/09/23 01:12:59;;;;;;;2.87;1.60;;;12.50;84.90;;;;;;5053646;28;20778;-74
2023/09/23 01:15:30;;;;;;;2.00;1.30;;;12.50;84.60;;;;;;5045289;28;20201;-74
2023/09/23 01:17:56;;;;;;;3.57;1.30;;;12.30;84.00;;;;;;5039470;28;20515;-74
2023/09/23 01:20:22;;;;;;;2.47;1.40;;;12.30;84.00;;;;;;5049908;28;20521;-73
2023/09/23 01:22:48;;;;;;;1.30;1.00;;;12.20;84.30;;;;;;5050119;28;20808;-73
2023/09/23 01:25:14;;;;;;;3.77;1.40;;;12.20;84.40;;;;;;5043027;28;20468;-73
2023/09/23 01:27:40;;;;;;;2.60;1.30;;;12.20;84.40;;;;;;5041778;28;20307;-75
2023/09/23 01:30:07;;;;;;;1.97;1.30;;;12.20;84.40;;;;;;5046189;28;20529;-74
2023/09/23 01:32:42;;;;;;;2.97;1.23;;;12.10;84.60;;;;;;5045245;28;20442;-73
2023/09/23 01:35:09;;;;;;;3.57;1.37;;;12.10;84.60;;;;;;5045738;28;20468;-74
2023/09/23 01:37:35;;;;;;;2.10;1.20;;;12.00;84.60;;;;;;5049513;28;20563;-74
2023/09/23 01:40:01;;;;;;;2.03;1.27;;;11.90;84.90;;;;;;5053023;28;20443;-75
2023/09/23 01:42:30;;;;;;;3.47;1.03;;;11.80;85.00;;;;;;5054451;28;20927;-74
2023/09/23 01:44:57;;;;;;;1.53;1.00;;;11.80;85.00;;;;;;5048706;28;20963;-74
2023/09/23 01:47:23;;;;;;;4.80;1.40;;;11.80;84.40;;;;;;5049441;28;20427;-74
2023/09/23 01:49:48;;;;;;;1.73;1.03;;;11.70;84.00;;;;;;5050382;28;20419;-75
2023/09/23 01:52:16;;;;;;;5.93;1.47;;;11.70;83.60;;;;;;5054039;28;20196;-74
2023/09/23 01:54:44;;;;;;;2.17;1.20;;;11.80;83.30;;;;;;5051801;28;20825;-74
2023/09/23 01:57:16;;;;;;;1.37;0.87;;;11.80;83.10;;;;;;5050892;28;20470;-75
2023/09/23 01:59:41;;;;;;;1.97;1.20;;;11.80;82.80;;;;;;5049633;28;20475;-75
2023/09/23 02:02:09;;;;;;;1.53;1.00;;;11.80;82.80;;;;;;5048119;28;20466;-73
2023/09/23 02:04:37;;;;;;;2.10;1.20;;;11.80;83.00;;;;;;5049662;28;20213;-74
2023/09/23 02:07:03;;;;;;;3.77;1.13;;;11.80;83.30;;;;;;5050716;28;20470;-74
2023/09/23 02:09:30;;;;;;;2.20;1.30;;;11.80;83.60;;;;;;5048087;28;20946;-74
2023/09/23 02:11:56;;;;;;;1.83;1.10;;;11.70;83.80;;;;;;5052927;28;20508;-74
2023/09/23 02:14:22;;;;;;;2.93;1.33;;;11.70;84.30;;;;;;5051554;28;20912;-74
2023/09/23 02:16:48;;;;;;;1.63;0.97;;;11.70;84.40;;;;;;5039026;28;20478;-74
2023/09/23 02:19:13;;;;;;;1.80;1.17;;;11.70;84.30;;;;;;5041012;28;20927;-74
2023/09/23 02:21:39;;;;;;;1.83;1.33;;;11.60;84.00;;;;;;5051604;28;20185;-72
2023/09/23 02:24:06;;;;;;;3.40;1.70;;;11.60;84.00;;;;;;5050290;28;20186;-74
2023/09/23 02:26:32;;;;;;;1.70;0.97;;;11.60;83.70;;;;;;5046984;28;20634;-74
2023/09/23 02:28:57;;;;;;;1.77;1.33;;;11.70;83.30;;;;;;5043494;28;20423;-73
2023/09/23 02:31:23;;;;;;;4.13;1.10;;;11.70;82.80;;;;;;5049154;28;20290;-73
2023/09/23 02:33:48;;;;;;;1.97;1.00;;;11.70;82.80;;;;;;5052265;28;20180;-73
2023/09/23 02:36:14;;;;;;;3.87;1.40;;;11.80;83.00;;;;;;5042423;28;20205;-74
2023/09/23 02:38:42;;;;;;;2.00;1.30;;;11.80;83.10;;;;;;5047230;28;20186;-74
2023/09/23 02:41:08;;;;;;;2.17;1.00;;;11.80;83.40;;;;;;5052285;28;20181;-73
2023/09/23 02:43:34;;;;;;;2.23;1.00;;;11.80;83.60;;;;;;5051038;28;20485;-75
2023/09/23 02:46:01;;;;;;;1.90;1.00;;;11.70;83.60;;;;;;5043955;28;20243;-75
2023/09/23 02:48:28;;;;;;;2.50;1.30;;;11.70;83.80;;;;;;5042596;28;20424;-74
2023/09/23 02:50:53;;;;;;;2.77;1.10;;;11.70;83.70;;;;;;5051040;28;20443;-74
2023/09/23 02:53:19;;;;;;;3.27;1.60;;;11.60;83.60;;;;;;5043241;28;20768;-73
2023/09/23 02:55:51;;;;;;;2.80;1.20;;;11.60;83.80;;;;;;5045753;28;20292;-74
2023/09/23 02:58:22;;;;;;;1.20;0.90;;;11.60;84.00;;;;;;5052280;28;20478;-73
2023/09/23 03:00:57;;;;;;;2.17;1.10;;;11.60;83.80;;;;;;5053436;28;20433;-74
2023/09/23 03:03:23;;;;;;;1.40;0.90;;;11.50;84.10;;;;;;5055811;28;20429;-74
2023/09/23 03:05:55;;;;;;;2.37;1.20;;;11.50;84.30;;;;;;5044557;28;21178;-76
2023/09/23 03:08:24;;;;;;;2.40;1.20;;;11.40;84.40;;;;;;5038730;28;20419;-74
2023/09/23 03:10:52;;;;;;;1.80;1.30;;;11.40;84.40;;;;;;5050584;28;20924;-74
2023/09/23 03:13:18;;;;;;;4.03;1.60;;;11.40;84.60;;;;;;5048479;28;20423;-75
2023/09/23 03:15:53;;;;;;;1.77;1.00;;;11.40;84.70;;;;;;5045507;28;20456;-74
2023/09/23 03:18:28;;;;;;;1.27;1.00;;;11.40;84.70;;;;;;5039109;28;20438;-74
2023/09/23 03:20:59;;;;;;;2.33;1.10;;;11.40;84.30;;;;;;5050914;28;20446;-74
2023/09/23 03:23:26;;;;;;;1.70;1.10;;;11.40;84.40;;;;;;5046739;28;20419;-74
2023/09/23 03:25:52;;;;;;;1.77;0.93;;;11.40;84.40;;;;;;5043023;28;20497;-75
2023/09/23 03:28:18;;;;;;;2.23;1.07;;;11.30;84.40;;;;;;5046422;28;20432;-74
2023/09/23 03:30:47;;;;;;;2.37;1.40;;;11.40;84.60;;;;;;5042751;28;20420;-75
2023/09/23 03:33:14;;;;;;;3.63;1.20;;;11.40;84.30;;;;;;5049878;28;20485;-74
2023/09/23 03:35:40;;;;;;;3.00;1.40;;;11.40;84.10;;;;;;5042828;28;20964;-74
2023/09/23 03:38:05;;;;;;;2.97;1.30;;;11.40;84.10;;;;;;5042442;28;20478;-74
2023/09/23 03:40:31;;;;;;;2.87;1.13;;;11.30;84.40;;;;;;5046674;28;20238;-74
2023/09/23 03:42:58;;;;;;;2.87;1.33;;;11.30;84.70;;;;;;5050254;28;20230;-74
2023/09/23 03:45:24;;;;;;;5.50;1.40;;;11.20;84.70;;;;;;5040255;28;20197;-75
2023/09/23 03:47:49;;;;;;;2.30;1.33;;;11.30;84.90;;;;;;5043900;28;20425;-73
2023/09/23 03:50:15;;;;;;;2.60;1.27;;;11.30;84.40;;;;;;5045066;28;20282;-74
2023/09/23 03:52:42;;;;;;;1.70;1.03;;;11.30;84.30;;;;;;5048146;28;20199;-75
2023/09/23 03:55:13;;;;;;;2.60;1.37;;;11.40;84.10;;;;;;5047218;28;20478;-75
2023/09/23 03:57:39;;;;;;;2.17;1.30;;;11.40;84.10;;;;;;5048048;28;21088;-74
2023/09/23 04:00:16;;;;;;;2.27;1.30;;;11.40;84.00;;;;;;5048749;28;20433;-77
2023/09/23 04:02:44;;;;;;;3.00;1.20;;;11.50;83.80;;;;;;5049695;28;20425;-76
2023/09/23 04:05:10;;;;;;;2.00;1.20;;;11.50;83.80;;;;;;5042332;28;20927;-75
2023/09/23 04:07:36;;;;;;;3.20;1.43;;;11.40;83.80;;;;;;5044924;28;20449;-74
2023/09/23 04:10:02;;;;;;;2.30;1.27;;;11.30;84.10;;;;;;5051667;28;20279;-75
2023/09/23 04:12:28;;;;;;;2.40;1.13;;;11.30;84.30;;;;;;5049875;28;20462;-76
2023/09/23 04:14:53;;;;;;;1.50;1.23;;;11.20;84.30;;;;;;5047828;28;20327;-75
2023/09/23 04:17:19;;;;;;;1.77;1.20;;;11.20;84.60;;;;;;5044299;28;20212;-75
2023/09/23 04:19:44;;;;;;;2.20;1.30;;;11.10;84.60;;;;;;5044186;28;20203;-76
2023/09/23 04:22:11;;;;;;;2.63;1.30;;;11.10;84.70;;;;;;5050735;28;20173;-75
2023/09/23 04:24:36;;;;;;;4.60;1.77;;;11.10;84.70;;;;;;5049118;28;20238;-75
2023/09/23 04:27:02;;;;;;;4.40;2.00;;;11.10;84.70;;;;;;5049758;28;20443;-76
2023/09/23 04:29:30;;;;;;;1.40;1.13;;;11.10;84.70;;;;;;5041065;28;20192;-75
2023/09/23 04:31:56;;;;;;;2.23;1.20;;;11.10;84.90;;;;;;5049182;28;20279;-76
2023/09/23 04:34:24;;;;;;;3.33;1.40;;;11.10;84.90;;;;;;5054155;28;20415;-76
2023/09/23 04:36:50;;;;;;;2.10;1.30;;;11.10;84.70;;;;;;5042599;28;20509;-75
2023/09/23 04:39:16;;;;;;;1.40;1.10;;;11.10;84.10;;;;;;5043131;28;20450;-75
2023/09/23 04:41:42;;;;;;;1.67;1.20;;;11.20;84.00;;;;;;5050830;28;20492;-77
2023/09/23 04:44:08;;;;;;;2.50;1.00;;;11.20;84.10;;;;;;5051110;28;20411;-75
2023/09/23 04:46:33;;;;;;;1.70;1.00;;;11.20;83.80;;;;;;5042892;28;20942;-75
2023/09/23 04:49:00;;;;;;;2.93;1.50;;;11.20;84.00;;;;;;5046709;28;20231;-75
2023/09/23 04:51:26;;;;;;;8.40;1.70;;;11.10;84.10;;;;;;5048538;28;20242;-74
2023/09/23 04:53:51;;;;;;;3.50;1.40;;;11.10;84.60;;;;;;5049999;28;20431;-77
2023/09/23 04:56:18;;;;;;;2.23;1.27;;;11.10;84.30;;;;;;5041093;28;20287;-74
2023/09/23 04:58:43;;;;;;;1.63;1.20;;;11.10;84.60;;;;;;5050000;28;20184;-74
2023/09/23 05:01:12;;;;;;;6.13;2.43;;;11.00;84.60;;;;;;5049347;28;21093;-74
2023/09/23 05:03:37;;;;;;;2.10;1.20;;;11.00;84.70;;;;;;5048403;28;20498;-73
2023/09/23 05:06:04;;;;;;;1.70;1.10;;;11.00;84.70;;;;;;5037701;28;20467;-75
2023/09/23 05:08:31;;;;;;;1.10;0.97;;;10.90;84.90;;;;;;5043914;28;20207;-75
2023/09/23 05:10:57;;;;;;;3.30;1.70;;;10.90;84.90;;;;;;5048587;28;20423;-74
2023/09/23 05:13:24;;;;;;;3.50;1.30;;;10.90;84.90;;;;;;5058013;28;20824;-75
2023/09/23 05:15:50;;;;;;;2.10;1.30;;;10.90;85.00;;;;;;5043007;28;20208;-74
2023/09/23 05:18:18;;;;;;;3.40;1.30;;;10.90;85.00;;;;;;5048740;28;20865;-72
2023/09/23 05:20:47;;;;;;;1.73;1.23;;;10.90;85.20;;;;;;5056178;28;20419;-74
2023/09/23 05:23:13;;;;;;;1.50;1.30;;;11.00;85.00;;;;;;5051684;28;20447;-74
2023/09/23 05:25:41;;;;;;;2.50;1.50;;;11.00;84.70;;;;;;5049149;28;20497;-75
2023/09/23 05:28:06;;;;;;;2.00;1.50;;;11.00;84.90;;;;;;5055385;28;20776;-76
2023/09/23 05:30:32;;;;;;;2.43;1.63;;;11.10;84.90;;;;;;5056592;28;20407;-75
2023/09/23 05:32:58;;;;;;;2.43;1.00;;;11.10;84.60;;;;;;5056102;28;20195;-74
2023/09/23 05:35:24;;;;;;;2.10;1.40;;;11.00;84.70;;;;;;5054155;28;20204;-75
2023/09/23 05:37:51;;;;;;;3.63;1.33;;;11.10;84.30;;;;;;5053164;28;20251;-74
2023/09/23 05:42:46;;;;;;;1.77;1.10;;;11.10;84.60;;;;;;5057031;28;20453;-74
2023/09/23 05:45:11;;;;;;;2.03;1.00;;;11.10;84.30;;;;;;5054651;28;20447;-75
2023/09/23 05:47:37;;;;;;;4.30;1.30;;;11.10;84.60;;;;;;5055634;28;20419;-75
2023/09/23 05:50:04;;;;;;;1.43;1.10;;;11.10;84.60;;;;;;5054819;28;20565;-76
2023/09/23 05:52:30;;;;;;;2.30;1.23;;;11.20;84.30;;;;;;5058620;28;20425;-75
2023/09/23 05:54:56;;;;;;;1.93;1.33;;;11.20;83.80;;;;;;5050753;28;20538;-73
2023/09/23 05:57:22;;;;;;;4.80;1.70;;;11.20;83.60;;;;;;5048159;28;20463;-74
2023/09/23 05:59:47;;;;;;;5.90;1.37;;;11.30;83.70;;;;;;5054029;28;20445;-75
2023/09/23 06:02:13;;;;;;;2.57;1.30;;;11.30;83.80;;;;;;5053803;28;20218;-75
2023/09/23 06:04:38;;;;;;;3.20;1.23;;;11.30;83.80;;;;;;5056096;28;20188;-75
2023/09/23 06:07:04;;;;;;;2.97;1.30;;;11.30;83.70;;;;;;5040882;28;20264;-75
2023/09/23 06:09:30;;;;;;;2.10;1.30;;;11.30;83.70;;;;;;5047545;28;20318;-76
2023/09/23 06:11:56;;;;;;;4.00;1.53;;;11.40;83.60;;;;;;5056135;28;20521;-77
2023/09/23 06:14:21;;;;;;;2.33;1.40;;;11.40;83.60;;;;;;5056075;28;20409;-76
2023/09/23 06:16:50;;;;;;;3.70;1.50;;;11.50;83.40;;;;;;5044329;28;20211;-76
2023/09/23 06:19:15;;;;;;;2.27;1.23;;;11.40;83.40;;;;;;5052118;28;20263;-76
2023/09/23 06:21:41;;;;;;;2.43;1.10;;;11.40;83.60;;;;;;5053614;28;20475;-75
2023/09/23 06:24:10;;;;;;;2.93;1.30;;;11.50;83.40;;;;;;5053205;28;20184;-75
2023/09/23 06:26:37;;;;;;;2.33;1.70;;;11.50;83.40;;;;;;5042967;28;20316;-75
2023/09/23 06:29:04;;;;;;;4.50;1.90;;;11.50;83.60;;;;;;5052282;28;20423;-75
2023/09/23 06:31:30;;;;;;;1.80;1.50;;;11.60;83.40;;;;;;5053862;28;20419;-75
2023/09/23 06:33:56;;;;;;;3.40;1.60;;;11.60;83.30;;;;;;5053918;28;20423;-76
2023/09/23 06:36:21;;;;;;;1.90;1.20;;;11.60;83.40;;;;;;5050243;28;20212;-78
2023/09/23 06:38:47;;;;;;;4.53;1.60;;;11.60;83.60;;;;;;5056493;28;20197;-76
2023/09/23 06:41:12;;;;;;;4.27;1.40;;;11.60;83.60;;;;;;5053529;28;20259;-77
2023/09/23 06:43:38;;;;;;;3.83;1.30;;;11.70;83.30;;;;;;5047102;28;20633;-74
2023/09/23 06:46:03;;;;;;;3.00;1.60;;;11.80;82.80;;;;;;5046302;28;20307;-75
2023/09/23 06:48:29;;;;;;;2.93;1.60;;;11.80;82.50;;;;;;5049291;28;20195;-75
2023/09/23 06:50:59;;;;;;;2.60;1.50;;;11.80;82.70;;;;;;5050832;28;20692;-78
2023/09/23 06:53:25;;;;;;;2.30;1.30;;;12.00;82.70;;;;;;5048824;28;20184;-76
2023/09/23 06:55:51;;;;;;;4.20;1.43;;;12.00;82.40;;;;;;5044338;28;20451;-75
2023/09/23 06:58:17;;;;;;;2.93;1.30;;;12.10;82.40;;;;;;5045311;28;20418;-76
2023/09/23 07:00:43;;;;;;;1.90;1.37;;;12.20;81.70;;;;;;5049232;28;20685;-76
2023/09/23 07:03:08;;;;;;;2.13;1.40;;;12.30;81.70;;;;;;5046701;28;20192;-76
2023/09/23 07:05:37;;;;;;;3.63;1.20;;;12.40;81.80;;;;;;5048865;28;20204;-75
2023/09/23 07:08:03;;;;;;;2.63;1.50;;;12.50;81.10;;;;;;5038541;28;20205;-76
2023/09/23 07:10:29;;;;;;;1.90;1.33;;;12.60;80.60;;;;;;5050416;28;20422;-76
2023/09/23 07:12:54;;;;;;;3.00;1.40;;;12.70;80.30;;;;;;5048853;28;20476;-76
2023/09/23 07:15:20;;;;;;;1.77;1.27;;;12.80;79.50;;;;;;5048423;28;20204;-77
2023/09/23 07:17:46;;;;;;;3.40;1.30;;;12.90;79.50;;;;;;5041400;28;20204;-75
2023/09/23 07:20:12;;;;;;;3.60;1.43;;;13.00;79.20;;;;;;5051691;28;20291;-76
2023/09/23 07:22:38;;;;;;;2.03;1.20;;;13.10;78.40;;;;;;5052702;28;20973;-74
2023/09/23 07:25:04;;;;;;;2.87;1.50;;;13.10;77.80;;;;;;5043915;28;20215;-73
2023/09/23 07:27:30;;;;;;;2.53;1.40;;;13.20;77.80;;;;;;5038444;28;20558;-75
2023/09/23 07:29:56;;;;;;;2.17;1.30;;;13.30;77.80;;;;;;5046583;28;20423;-74
2023/09/23 07:32:22;;;;;;;5.30;1.33;;;13.50;78.00;;;;;;5047282;28;20966;-74
2023/09/23 07:34:47;;;;;;;1.60;1.10;;;13.50;77.60;;;;;;5049674;28;20188;-72
2023/09/23 07:37:13;;;;;;;3.60;1.40;;;13.50;77.70;;;;;;5041493;28;20227;-74
2023/09/23 07:39:40;;;;;;;1.90;1.10;;;13.60;77.30;;;;;;5052474;28;20897;-74
2023/09/23 07:42:05;;;;;;;3.07;1.17;;;13.60;76.40;;;;;;5051642;28;20191;-75
2023/09/23 07:44:31;;;;;;;3.10;1.20;;;13.60;75.70;;;;;;5043631;28;20428;-75
2023/09/23 07:46:56;;;;;;;2.60;1.40;;;13.60;75.70;;;;;;5049258;28;20231;-75
2023/09/23 07:49:22;;;;;;;1.90;1.10;;;13.70;75.90;;;;;;5052236;28;20220;-77
2023/09/23 07:51:48;;;;;;;6.10;1.47;;;13.70;75.70;;;;;;5050743;28;20263;-73
2023/09/23 07:54:14;;;;;;;2.07;1.20;;;13.80;75.80;;;;;;5048387;28;20234;-73
2023/09/23 07:56:39;;;;;;;2.33;1.13;;;14.00;75.40;;;;;;5039976;28;20225;-74
2023/09/23 07:59:06;;;;;;;3.93;1.20;;;14.10;73.70;;;;;;5044891;28;20198;-75
2023/09/23 08:01:31;;;;;;;2.37;1.10;;;14.10;73.00;;;;;;5054736;28;20200;-74
2023/09/23 08:03:57;;;;;;;2.73;1.30;;;14.20;73.00;;;;;;5051531;28;20415;-75
2023/09/23 08:06:23;;;;;;;1.13;0.90;;;14.20;72.60;;;;;;5046555;28;20295;-76
2023/09/23 08:08:49;;;;;;;1.83;0.90;;;14.30;71.40;;;;;;5036531;28;20254;-74
2023/09/23 08:11:14;;;;;;;3.20;1.20;;;14.30;72.10;;;;;;5045679;28;20488;-76
2023/09/23 08:13:40;;;;;;;1.20;1.00;;;14.40;72.30;;;;;;5045120;28;20188;-75
2023/09/23 08:16:06;;;;;;;2.17;1.27;;;14.50;71.10;;;;;;5048181;28;20208;-73
2023/09/23 08:18:31;;;;;;;1.90;1.00;;;14.50;70.80;;;;;;5043231;28;20185;-75
2023/09/23 08:21:00;;;;;;;2.23;1.30;;;14.50;70.50;;;;;;5050668;28;20184;-75
2023/09/23 08:23:27;;;;;;;1.87;1.07;;;14.40;71.40;;;;;;5052984;28;20228;-74
2023/09/23 08:25:54;;;;;;;1.53;1.00;;;14.40;71.10;;;;;;5046421;28;20498;-76
2023/09/23 08:28:19;;;;;;;2.30;1.20;;;14.40;70.50;;;;;;5046362;28;20199;-76
2023/09/23 08:30:46;;;;;;;1.50;1.00;;;14.40;71.00;;;;;;5054782;28;20804;-75
2023/09/23 08:33:12;;;;;;;1.60;1.30;;;14.50;70.20;;;;;;5049859;28;20234;-74
2023/09/23 08:35:40;;;;;;;1.90;1.20;;;14.40;69.90;;;;;;5055109;28;20462;-73
2023/09/23 08:38:05;;;;;;;4.60;1.00;;;14.50;69.40;;;;;;5039812;28;20559;-74
2023/09/23 08:40:34;;;;;;;1.53;1.10;;;14.50;69.90;;;;;;5052218;28;20499;-75
2023/09/23 08:43:04;;;;;;;1.30;1.00;;;14.50;68.90;;;;;;5051605;28;20189;-74
2023/09/23 08:45:31;;;;;;;2.80;1.07;;;14.60;69.10;;;;;;5039208;28;20605;-76
2023/09/23 08:48:02;;;;;;;2.73;1.20;;;14.60;68.50;;;;;;5048866;28;20419;-76
2023/09/23 08:50:29;;;;;;;3.27;1.10;;;14.60;68.90;;;;;;5045636;28;20521;-73
2023/09/23 08:52:56;;;;;;;1.87;1.00;;;14.70;68.30;;;;;;5051045;28;20438;-74
2023/09/23 08:55:25;;;;;;;1.80;1.17;;;14.70;69.10;;;;;;5038730;28;20525;-76
2023/09/23 08:57:50;;;;;;;1.83;1.10;;;14.80;68.80;;;;;;5040069;28;20501;-75
2023/09/23 09:00:18;;;;;;;1.83;1.13;;;14.80;67.90;;;;;;5049981;28;20440;-75
2023/09/23 09:02:43;;;;;;;3.00;1.30;;;14.80;67.70;;;;;;5049979;28;20184;-75
2023/09/23 09:05:09;;;;;;;2.40;1.70;;;14.80;68.00;;;;;;5045813;28;20494;-75
2023/09/23 09:07:38;;;;;;;3.93;1.30;;;14.90;68.50;;;;;;5041200;28;20276;-75
2023/09/23 09:10:05;;;;;;;4.40;1.10;;;15.00;68.00;;;;;;5051053;28;20742;-75
2023/09/23 09:12:32;;;;;;;3.53;1.40;;;15.10;68.20;;;;;;5048102;28;20426;-75
2023/09/23 09:14:57;;;;;;;2.90;1.30;;;15.20;67.60;;;;;;5050086;28;20977;-76
2023/09/23 09:17:23;;;;;;;2.60;1.17;;;15.20;67.90;;;;;;5045905;28;20652;-75
2023/09/23 09:19:49;;;;;;;1.67;1.27;;;15.30;67.30;;;;;;5051200;28;20182;-75
2023/09/23 09:22:16;;;;;;;2.07;1.20;;;15.30;67.20;;;;;;5046339;28;20207;-76
2023/09/23 09:24:42;;;;;;;3.10;1.30;;;15.30;67.50;;;;;;5046423;28;20950;-72
2023/09/23 09:27:12;;;;;;;3.03;1.10;;;15.30;67.70;;;;;;5042055;28;20555;-76
2023/09/23 09:29:38;;;;;;;3.33;1.20;;;15.40;67.50;;;;;;5040603;28;20425;-75
2023/09/23 09:32:08;;;;;;;5.17;2.27;;;15.50;67.60;;;;;;5051301;28;20431;-75
2023/09/23 09:34:47;;;;;;;2.23;1.60;;;15.60;67.90;;;;;;5050119;28;20795;-75
2023/09/23 09:37:14;;;;;;;3.60;1.20;;;15.70;67.30;;;;;;5034925;28;20775;-72
2023/09/23 09:39:59;;;;;;;1.77;1.23;;;15.80;65.80;;;;;;5042807;28;20481;-75
2023/09/23 09:42:30;;;;;;;3.00;1.40;;;15.80;64.80;;;;;;5044214;28;20420;-75
2023/09/23 09:44:57;;;;;;;2.73;1.30;;;15.80;65.00;;;;;;5046101;28;20462;-74
2023/09/23 09:47:23;;;;;;;2.73;1.20;;;15.90;65.30;;;;;;5036810;28;20818;-75
2023/09/23 09:49:54;;;;;;;4.23;1.03;;;16.00;64.80;;;;;;5047813;28;20431;-75
2023/09/23 09:52:25;;;;;;;8.00;1.43;;;16.10;64.70;;;;;;5050145;28;20932;-74
2023/09/23 09:54:55;;;;;;;1.43;0.90;;;16.10;65.30;;;;;;5044775;28;20486;-74
2023/09/23 09:57:26;;;;;;;2.80;1.20;;;16.20;64.80;;;;;;5039516;28;20566;-76
2023/09/23 10:00:00;;;;;;;3.37;1.47;;;16.20;64.70;;;;;;5052770;28;20464;-75
2023/09/23 10:02:27;;;;;;;2.23;1.10;;;16.30;64.50;;;;;;5053425;28;20469;-75
2023/09/23 10:04:55;;;;;;;1.93;1.33;;;16.30;65.00;;;;;;5049141;28;20446;-75
2023/09/23 10:07:23;;;;;;;3.40;1.33;;;16.30;64.80;;;;;;5045195;28;20456;-75
2023/09/23 10:09:55;;;;;;;2.30;1.20;;;16.40;64.70;;;;;;5051309;28;20445;-74
2023/09/23 10:12:31;;;;;;;1.77;1.00;;;16.50;65.00;;;;;;5051186;28;20421;-74
2023/09/23 10:14:57;;;;;;;3.20;1.30;;;16.80;64.80;;;;;;5047538;28;20457;-74
2023/09/23 10:17:31;;;;;;;1.73;1.07;;;16.90;64.20;;;;;;5044437;28;20471;-75
2023/09/23 10:19:57;;;;;;;1.53;1.20;;;17.10;63.90;;;;;;5048743;28;20465;-77
2023/09/23 10:22:24;;;;;;;1.80;1.20;;;17.00;62.80;;;;;;5049544;28;21281;-73
2023/09/23 10:25:04;;;;;;;3.43;1.20;;;16.80;62.80;;;;;;5056217;28;20445;-75
2023/09/23 10:27:31;;;;;;;4.63;1.30;;;17.00;63.70;;;;;;5040338;28;20470;-74
2023/09/23 10:29:57;;;;;;;4.33;1.60;;;17.10;63.20;;;;;;5041233;28;21148;-73
2023/09/23 10:32:22;;;;;;;4.50;2.53;;;17.40;62.90;;;;;;5052182;28;20442;-74
2023/09/23 10:34:50;;;;;;;4.87;1.50;;;17.60;62.80;;;;;;5048872;28;20423;-73
2023/09/23 10:37:29;;;;;;;2.50;1.30;;;17.80;62.80;;;;;;5035411;28;20432;-74
2023/09/23 10:40:12;;;;;;;7.90;1.73;;;18.00;61.50;;;;;;5048891;28;20424;-76
2023/09/23 10:42:38;;;;;;;3.10;1.33;;;18.10;61.50;;;;;;5054318;28;20600;-75
2023/09/23 10:45:05;;;;;;;3.97;1.60;;;18.20;60.60;;;;;;5050041;28;20463;-76
2023/09/23 10:47:31;;;;;;;4.43;1.60;;;18.10;60.00;;;;;;5043650;28;20578;-74
2023/09/23 10:49:57;;;;;;;1.97;1.00;;;18.10;60.10;;;;;;5052050;28;20431;-75
2023/09/23 10:52:22;;;;;;;1.40;0.90;;;18.00;60.10;;;;;;5052192;28;20218;-74
2023/09/23 10:54:49;;;;;;;1.13;0.80;;;18.00;60.30;;;;;;5050382;28;20185;-74
2023/09/23 10:57:14;;;;;;;2.20;1.17;;;18.10;59.90;;;;;;5049506;28;20711;-75
2023/09/23 10:59:43;;;;;;;2.03;1.10;;;18.20;59.90;;;;;;5056918;28;20431;-74
2023/09/23 11:02:11;;;;;;;2.50;1.40;;;18.80;59.70;;;;;;5053147;28;20187;-75
2023/09/23 11:04:36;;;;;;;5.97;1.30;;;19.00;58.20;;;;;;5050014;28;20907;-74
2023/09/23 11:07:05;;;;;;;3.33;1.20;;;18.50;59.10;;;;;;5046515;28;20446;-74
2023/09/23 11:09:31;;;;;;;3.20;1.10;;;18.80;58.80;;;;;;5046977;28;20188;-73
2023/09/23 11:12:06;;;;;;;2.20;1.33;;;18.40;58.80;;;;;;5051322;28;20519;-76
2023/09/23 11:14:32;;;;;;;5.17;1.20;;;18.10;60.40;;;;;;5048913;28;20668;-73
2023/09/23 11:17:00;;;;;;;3.40;1.30;;;18.10;60.70;;;;;;5044865;28;20562;-72
2023/09/23 11:19:26;;;;;;;2.30;1.40;;;17.80;61.30;;;;;;5045423;28;20185;-73
2023/09/23 11:21:51;;;;;;;4.90;1.40;;;17.30;62.00;;;;;;5045539;28;20423;-74
2023/09/23 11:24:18;;;;;;;7.37;1.60;;;17.30;62.80;;;;;;5051025;28;20426;-74
2023/09/23 11:26:45;;;;;;;4.37;1.70;;;17.60;63.10;;;;;;5041609;28;20215;-72
2023/09/23 11:29:11;;;;;;;4.30;1.60;;;18.20;61.60;;;;;;5047908;28;20431;-73
2023/09/23 11:31:37;;;;;;;2.70;1.47;;;18.30;61.20;;;;;;5052331;28;20829;-75
2023/09/23 11:34:03;;;;;;;1.50;1.10;;;18.40;60.90;;;;;;5047291;28;20487;-75
2023/09/23 11:36:28;;;;;;;2.00;1.20;;;18.50;60.60;;;;;;5037750;28;20220;-74
2023/09/23 11:38:54;;;;;;;1.80;1.10;;;18.50;60.30;;;;;;5041233;28;20287;-73
2023/09/23 11:41:20;;;;;;;4.00;1.73;;;18.30;60.40;;;;;;5052990;28;20189;-73
2023/09/23 11:43:49;;;;;;;2.20;1.20;;;18.40;61.00;;;;;;5045099;28;20194;-74
2023/09/23 11:46:19;;;;;;;2.27;1.20;;;18.30;61.50;;;;;;5034276;28;20264;-73
2023/09/23 11:48:48;;;;;;;3.30;1.40;;;18.30;61.50;;;;;;5044391;28;20437;-74
2023/09/23 11:51:15;;;;;;;1.90;1.23;;;18.40;61.20;;;;;;5046491;28;20484;-73
2023/09/23 11:53:41;;;;;;;3.43;1.30;;;18.30;61.30;;;;;;5050927;28;20424;-73
2023/09/23 11:56:06;;;;;;;3.77;1.53;;;18.40;61.50;;;;;;5048082;28;20511;-74
2023/09/23 11:58:32;;;;;;;7.60;1.60;;;18.30;61.20;;;;;;5052185;28;20917;-74
2023/09/23 12:00:58;;;;;;;4.00;1.80;;;18.30;61.60;;;;;;5052558;28;20285;-76
2023/09/23 12:03:25;;;;;;;2.50;1.50;;;18.00;61.70;;;;;;5051925;28;20219;-74
2023/09/23 12:05:51;;;;;;;2.63;1.60;;;18.00;62.20;;;;;;5045879;28;20210;-75
2023/09/23 12:08:17;;;;;;;2.00;1.20;;;17.90;62.50;;;;;;5046196;28;20535;-74
2023/09/23 12:10:42;;;;;;;2.50;1.10;;;17.90;60.30;;;;;;5053842;28;20318;-71
2023/09/23 12:13:08;;;;;;;1.60;1.10;;;17.90;59.90;;;;;;5056149;28;20188;-76
2023/09/23 12:15:36;;;;;;;3.17;1.47;;;17.80;60.30;;;;;;5051807;28;20210;-74
2023/09/23 12:18:02;;;;;;;2.43;1.40;;;17.90;60.70;;;;;;5049903;28;20271;-74
2023/09/23 12:20:28;;;;;;;4.10;1.90;;;18.00;60.60;;;;;;5046945;28;20433;-74
2023/09/23 12:22:56;;;;;;;5.60;1.77;;;18.20;60.40;;;;;;5044806;28;20830;-75
2023/09/23 12:25:21;;;;;;;8.17;4.57;;;18.30;59.90;;;;;;5046040;28;21020;-75
2023/09/23 12:27:47;;;;;;;3.87;1.47;;;18.20;59.20;;;;;;5044940;28;20512;-74
2023/09/23 12:30:17;;;;;;;2.13;1.27;;;18.30;59.30;;;;;;5046977;28;20201;-73
2023/09/23 12:32:42;;;;;;;2.53;1.43;;;18.30;59.50;;;;;;5050549;28;20254;-74
2023/09/23 12:35:09;;;;;;;3.73;1.30;;;18.50;59.10;;;;;;5047408;28;20556;-76
2023/09/23 12:37:35;;;;;;;2.57;1.40;;;18.60;58.90;;;;;;5049768;28;20217;-74
2023/09/23 12:40:00;;;;;;;3.43;1.63;;;18.40;58.40;;;;;;5051715;28;20486;-74
2023/09/23 12:42:26;;;;;;;2.97;1.80;;;18.30;58.50;;;;;;5052189;28;20212;-74
2023/09/23 12:44:52;;;;;;;2.53;1.80;;;18.40;58.10;;;;;;5052455;28;20198;-75
2023/09/23 12:47:17;;;;;;;2.27;1.47;;;18.40;58.10;;;;;;5033876;28;20218;-75
2023/09/23 12:49:43;;;;;;;4.70;1.57;;;18.30;57.20;;;;;;5048249;28;20191;-73